METAR Data
IDs: Format: Raw Decoded Include TAF

Data at: 2137 UTC 02 Aug 2021

EFUT 022120Z AUTO 24003KT 9999 -RA OVC041 15/14 Q0998